Time;durP1;ratioP1;P1;durP2;ratioP2;P2;SDS_P1;SDS_P2;PMS_P1;PMS_P2;Temp;Humidity;BMP_temperature;BMP_pressure;BME280_temperature;BME280_humidity;BME280_pressure;Samples;Min_cycle;Max_cycle;Signal;HPM_P1;HPM_P2
2024/02/26 00:01:39;;;;;;;1.40;0.80;;;8.90;99.90;;;;;;5051630;28;20463;-45
2024/02/26 00:04:07;;;;;;;1.00;0.50;;;8.90;99.90;;;;;;5047493;28;20491;-45
2024/02/26 00:06:41;;;;;;;1.30;0.70;;;8.90;99.90;;;;;;5050844;28;20872;-45
2024/02/26 00:09:13;;;;;;;1.20;0.70;;;8.90;99.90;;;;;;5049120;28;20436;-45
2024/02/26 00:11:42;;;;;;;2.00;0.87;;;8.90;99.90;;;;;;5045883;28;20534;-45
2024/02/26 00:14:10;;;;;;;1.63;0.70;;;8.90;99.90;;;;;;5051241;28;20535;-45
2024/02/26 00:16:41;;;;;;;1.87;0.87;;;8.90;99.90;;;;;;5051334;28;20459;-44
2024/02/26 00:19:09;;;;;;;2.43;0.93;;;8.90;99.90;;;;;;5043434;28;20972;-45
2024/02/26 00:21:41;;;;;;;1.30;0.67;;;8.90;99.90;;;;;;5051831;28;20542;-45
2024/02/26 00:24:09;;;;;;;1.90;0.70;;;8.90;99.90;;;;;;5048035;28;20447;-45
2024/02/26 00:26:39;;;;;;;2.20;1.10;;;8.90;99.90;;;;;;5046786;28;20976;-45
2024/02/26 00:29:07;;;;;;;1.50;0.70;;;8.90;99.90;;;;;;5029957;28;20431;-45
2024/02/26 00:31:38;;;;;;;1.30;0.73;;;8.90;99.90;;;;;;5049385;28;20471;-45
2024/02/26 00:34:08;;;;;;;1.50;0.80;;;8.90;99.90;;;;;;5043616;28;20540;-45
2024/02/26 00:36:37;;;;;;;2.20;1.10;;;8.90;99.90;;;;;;5044430;28;20486;-45
2024/02/26 00:39:07;;;;;;;1.50;0.70;;;8.90;99.90;;;;;;5046025;28;20463;-45
2024/02/26 00:41:41;;;;;;;1.73;0.90;;;8.90;99.90;;;;;;5049465;28;20466;-44
2024/02/26 00:44:09;;;;;;;1.20;0.50;;;8.90;99.90;;;;;;5046157;28;20455;-45
2024/02/26 00:46:37;;;;;;;1.30;0.70;;;8.90;99.90;;;;;;5047440;28;20451;-45
2024/02/26 00:49:07;;;;;;;2.47;0.87;;;8.90;99.90;;;;;;5041189;28;20435;-45
2024/02/26 00:51:35;;;;;;;2.13;0.90;;;8.90;99.90;;;;;;5051097;28;20534;-46
2024/02/26 00:54:07;;;;;;;1.50;0.70;;;8.90;99.90;;;;;;5046799;28;20459;-45
2024/02/26 00:56:37;;;;;;;1.67;0.67;;;8.90;99.90;;;;;;5046713;28;20455;-45
2024/02/26 00:59:08;;;;;;;1.60;0.90;;;8.90;99.90;;;;;;5044789;28;20570;-45
2024/02/26 01:01:38;;;;;;;1.30;0.70;;;8.90;99.90;;;;;;5051040;28;20778;-46
2024/02/26 01:04:07;;;;;;;1.30;0.67;;;8.90;99.90;;;;;;5046063;28;20467;-45
2024/02/26 01:06:38;;;;;;;1.30;0.70;;;8.90;99.90;;;;;;5048582;28;20459;-45
2024/02/26 01:09:08;;;;;;;1.53;0.80;;;8.90;99.90;;;;;;5051755;28;20473;-45
2024/02/26 01:11:39;;;;;;;3.00;1.03;;;8.90;99.90;;;;;;5050472;28;20546;-44
2024/02/26 01:14:08;;;;;;;1.20;0.73;;;8.90;99.90;;;;;;5048088;28;20462;-46
2024/02/26 01:16:36;;;;;;;1.53;1.03;;;8.90;99.90;;;;;;5049878;28;20972;-47
2024/02/26 01:19:04;;;;;;;3.10;1.03;;;8.90;99.90;;;;;;5031143;28;20467;-45
2024/02/26 01:21:37;;;;;;;1.20;0.70;;;8.90;99.90;;;;;;5050754;28;21067;-44
2024/02/26 01:24:08;;;;;;;1.10;0.50;;;8.90;99.90;;;;;;5042923;28;20840;-46
2024/02/26 01:26:38;;;;;;;1.90;0.90;;;8.90;99.90;;;;;;5045916;28;20999;-45
2024/02/26 01:29:10;;;;;;;1.90;0.90;;;8.90;99.90;;;;;;5046825;28;20423;-45
2024/02/26 01:31:38;;;;;;;1.53;0.80;;;8.90;99.90;;;;;;5050330;28;20888;-45
2024/02/26 01:34:09;;;;;;;1.27;0.67;;;8.90;99.90;;;;;;5041209;28;20484;-45
2024/02/26 01:36:37;;;;;;;2.03;0.90;;;8.90;99.90;;;;;;5049626;28;20458;-44
2024/02/26 01:39:06;;;;;;;1.30;0.70;;;8.80;99.90;;;;;;5031064;28;20983;-45
2024/02/26 01:41:35;;;;;;;2.00;0.90;;;8.90;99.90;;;;;;5048728;28;21137;-46
2024/02/26 01:44:06;;;;;;;1.40;0.67;;;8.90;99.90;;;;;;5047456;28;20844;-45
2024/02/26 01:46:37;;;;;;;1.10;0.60;;;8.90;99.90;;;;;;5042515;28;21117;-46
2024/02/26 01:49:07;;;;;;;1.53;0.73;;;8.90;99.90;;;;;;5031043;28;20942;-46
2024/02/26 01:51:37;;;;;;;1.20;0.60;;;8.90;99.90;;;;;;5049662;28;20463;-45
2024/02/26 01:54:05;;;;;;;1.23;0.60;;;8.90;99.90;;;;;;5046360;28;20443;-45
2024/02/26 01:56:40;;;;;;;1.20;0.63;;;8.90;99.90;;;;;;5049473;28;20547;-45
2024/02/26 01:59:09;;;;;;;1.00;0.40;;;8.80;99.90;;;;;;5046585;28;20459;-45
2024/02/26 02:01:45;;;;;;;1.40;0.80;;;8.90;99.90;;;;;;5050505;28;20521;-45
2024/02/26 02:04:14;;;;;;;1.63;0.90;;;8.90;99.90;;;;;;5042708;28;20458;-45
2024/02/26 02:06:43;;;;;;;1.40;0.80;;;8.90;99.90;;;;;;5046175;28;20470;-46
2024/02/26 02:09:12;;;;;;;2.03;0.90;;;8.80;99.90;;;;;;5048410;28;20469;-46
2024/02/26 02:11:41;;;;;;;1.40;0.67;;;8.80;99.90;;;;;;5046434;28;20455;-46
2024/02/26 02:14:12;;;;;;;1.20;0.70;;;8.80;99.90;;;;;;5050811;28;20450;-46
2024/02/26 02:16:42;;;;;;;1.47;0.60;;;8.90;99.90;;;;;;5047418;28;20463;-46
2024/02/26 02:19:10;;;;;;;1.70;0.70;;;8.80;99.90;;;;;;5044295;28;20963;-46
2024/02/26 02:21:39;;;;;;;1.30;0.70;;;8.80;99.90;;;;;;5050050;28;20451;-46
2024/02/26 02:24:08;;;;;;;1.37;0.60;;;8.90;99.90;;;;;;5044216;28;20551;-44
2024/02/26 02:26:39;;;;;;;1.37;0.67;;;8.80;99.90;;;;;;5053242;28;20463;-46
2024/02/26 02:29:09;;;;;;;1.70;0.83;;;8.80;99.90;;;;;;5050098;28;20423;-45
2024/02/26 02:31:38;;;;;;;2.97;1.30;;;8.80;99.90;;;;;;5049383;28;20459;-45
2024/02/26 02:34:10;;;;;;;1.60;0.80;;;8.80;99.90;;;;;;5045971;28;20520;-46
2024/02/26 02:36:53;;;;;;;1.50;0.80;;;8.80;99.90;;;;;;5052539;28;20463;-46
2024/02/26 02:39:24;;;;;;;2.00;1.80;;;8.80;99.90;;;;;;5050418;28;20466;-46
2024/02/26 02:41:53;;;;;;;2.40;1.23;;;8.80;99.90;;;;;;5051831;28;20459;-45
2024/02/26 02:44:26;;;;;;;1.67;0.80;;;8.80;99.90;;;;;;5048000;28;20520;-47
2024/02/26 02:46:54;;;;;;;1.40;0.97;;;8.80;99.90;;;;;;5052900;28;20462;-45
2024/02/26 02:49:23;;;;;;;1.87;1.13;;;8.80;99.90;;;;;;5048589;28;20445;-46
2024/02/26 02:51:54;;;;;;;1.50;0.80;;;8.80;99.90;;;;;;5053394;28;20936;-46
2024/02/26 02:54:25;;;;;;;1.50;0.80;;;8.80;99.90;;;;;;5050960;28;20466;-45
2024/02/26 02:56:56;;;;;;;1.10;0.50;;;8.80;99.90;;;;;;5052805;28;20481;-46
2024/02/26 02:59:26;;;;;;;2.40;0.70;;;8.80;99.90;;;;;;5053379;28;20475;-46
2024/02/26 03:01:57;;;;;;;1.77;0.73;;;8.80;99.90;;;;;;5046466;28;20504;-46
2024/02/26 03:04:26;;;;;;;1.37;0.77;;;8.80;99.90;;;;;;5047826;28;20475;-45
2024/02/26 03:06:58;;;;;;;1.30;0.60;;;8.80;99.90;;;;;;5052640;28;20879;-45
2024/02/26 03:09:27;;;;;;;1.27;0.60;;;8.80;99.90;;;;;;5052896;28;20431;-45
2024/02/26 03:11:57;;;;;;;1.40;0.73;;;8.80;99.90;;;;;;5052726;28;21060;-45
2024/02/26 03:14:27;;;;;;;1.10;0.60;;;8.80;99.90;;;;;;5051361;28;20473;-45
2024/02/26 03:16:58;;;;;;;2.47;0.83;;;8.80;99.90;;;;;;5051921;28;20470;-45
2024/02/26 03:19:27;;;;;;;1.20;0.53;;;8.80;99.90;;;;;;5050896;28;20518;-45
2024/02/26 03:21:59;;;;;;;1.10;0.50;;;8.80;99.90;;;;;;5052398;28;20451;-46
2024/02/26 03:24:27;;;;;;;1.53;0.63;;;8.80;99.90;;;;;;5046687;28;20467;-45
2024/02/26 03:26:57;;;;;;;1.73;0.83;;;8.80;99.90;;;;;;5051638;28;20451;-45
2024/02/26 03:29:27;;;;;;;1.70;0.80;;;8.80;99.90;;;;;;5052328;28;20919;-44
2024/02/26 03:31:57;;;;;;;1.70;0.80;;;8.80;99.90;;;;;;5051823;28;20520;-44
2024/02/26 03:34:27;;;;;;;1.60;0.77;;;8.80;99.90;;;;;;5045852;28;21119;-45
2024/02/26 03:36:59;;;;;;;1.10;0.50;;;8.80;99.90;;;;;;5050201;28;20465;-44
2024/02/26 03:39:27;;;;;;;1.23;0.63;;;8.80;99.90;;;;;;5052562;28;21134;-45
2024/02/26 03:41:57;;;;;;;1.43;0.77;;;8.80;99.90;;;;;;5049800;28;20553;-46
2024/02/26 03:44:26;;;;;;;1.37;0.70;;;8.80;99.90;;;;;;5048113;28;20475;-45
2024/02/26 03:46:55;;;;;;;1.40;0.77;;;8.80;99.90;;;;;;5052493;28;20451;-45
2024/02/26 03:49:24;;;;;;;2.13;0.80;;;8.80;99.90;;;;;;5034063;28;20960;-45
2024/02/26 03:51:55;;;;;;;2.13;0.70;;;8.80;99.90;;;;;;5052230;28;20512;-46
2024/02/26 03:54:28;;;;;;;2.33;0.63;;;8.80;99.90;;;;;;5051593;28;20462;-45
2024/02/26 03:56:57;;;;;;;1.30;0.50;;;8.80;99.90;;;;;;5052005;28;20558;-45
2024/02/26 03:59:27;;;;;;;1.40;0.70;;;8.80;99.90;;;;;;5043562;28;20475;-46
2024/02/26 04:01:56;;;;;;;1.57;0.70;;;8.80;99.90;;;;;;5052465;28;20474;-45
2024/02/26 04:04:25;;;;;;;1.50;0.70;;;8.80;99.90;;;;;;5046518;28;20546;-45
2024/02/26 04:06:54;;;;;;;2.17;0.80;;;8.80;99.90;;;;;;5051688;28;20463;-45
2024/02/26 04:09:24;;;;;;;1.50;0.87;;;8.80;99.90;;;;;;5052226;28;20488;-45
2024/02/26 04:11:57;;;;;;;1.40;0.70;;;8.80;99.90;;;;;;5047941;28;20504;-45
2024/02/26 04:14:27;;;;;;;1.20;0.53;;;8.80;99.90;;;;;;5051671;28;20469;-45
2024/02/26 04:16:57;;;;;;;1.20;0.60;;;8.80;99.90;;;;;;5051407;28;20455;-46
2024/02/26 04:19:27;;;;;;;1.00;0.50;;;8.80;99.90;;;;;;5047096;28;20448;-45
2024/02/26 04:21:55;;;;;;;1.10;0.50;;;8.80;99.90;;;;;;5050784;28;20455;-45
2024/02/26 04:24:25;;;;;;;1.10;0.50;;;8.80;99.90;;;;;;5052027;28;20979;-45
2024/02/26 04:26:54;;;;;;;1.40;0.80;;;8.80;99.90;;;;;;5047742;28;20467;-45
2024/02/26 04:29:27;;;;;;;1.23;0.53;;;8.80;99.90;;;;;;5052038;28;20947;-44
2024/02/26 04:31:57;;;;;;;1.50;0.60;;;8.80;99.90;;;;;;5046807;28;20549;-45
2024/02/26 04:34:25;;;;;;;1.30;0.70;;;8.80;99.90;;;;;;5045775;28;20467;-45
2024/02/26 04:36:56;;;;;;;1.50;0.70;;;8.80;99.90;;;;;;5050299;28;20553;-44
2024/02/26 04:39:24;;;;;;;1.90;1.10;;;8.80;99.90;;;;;;5051693;28;20419;-45
2024/02/26 04:41:52;;;;;;;1.20;0.60;;;8.80;99.90;;;;;;5049220;28;20541;-46
2024/02/26 04:44:24;;;;;;;1.30;0.60;;;8.80;99.90;;;;;;5049827;28;20463;-45
2024/02/26 04:46:55;;;;;;;1.37;0.70;;;8.80;99.90;;;;;;5049150;28;20463;-45
2024/02/26 04:49:24;;;;;;;1.20;0.50;;;8.80;99.90;;;;;;5045424;28;20872;-45
2024/02/26 04:51:55;;;;;;;2.00;0.90;;;8.80;99.90;;;;;;5050939;28;20466;-44
2024/02/26 04:54:23;;;;;;;1.10;0.60;;;8.80;99.90;;;;;;5033575;28;20451;-45
2024/02/26 04:56:54;;;;;;;1.70;0.57;;;8.80;99.90;;;;;;5046869;28;20475;-46
2024/02/26 04:59:22;;;;;;;1.70;0.90;;;8.80;99.90;;;;;;5052196;28;20435;-44
2024/02/26 05:01:55;;;;;;;1.10;0.60;;;8.80;99.90;;;;;;5050805;28;20467;-45
2024/02/26 05:04:23;;;;;;;1.40;0.70;;;8.70;99.90;;;;;;5044805;28;20525;-46
2024/02/26 05:06:53;;;;;;;1.37;0.60;;;8.70;99.90;;;;;;5049652;28;20486;-45
2024/02/26 05:09:23;;;;;;;1.93;0.70;;;8.80;99.90;;;;;;5050457;28;20949;-46
2024/02/26 05:11:52;;;;;;;1.63;0.60;;;8.70;99.90;;;;;;5047959;28;20532;-46
2024/02/26 05:14:21;;;;;;;1.47;0.67;;;8.70;99.90;;;;;;5033613;28;20578;-45
2024/02/26 05:16:54;;;;;;;1.50;0.70;;;8.70;99.90;;;;;;5044988;28;20503;-45
2024/02/26 05:19:26;;;;;;;1.20;0.60;;;8.70;99.90;;;;;;5048997;28;20522;-45
2024/02/26 05:21:57;;;;;;;1.65;0.82;;;8.70;99.90;;;;;;5050557;28;20655;-45
2024/02/26 05:24:25;;;;;;;1.30;0.70;;;8.70;99.90;;;;;;5050722;28;20596;-45
2024/02/26 05:26:57;;;;;;;1.50;0.70;;;8.70;99.90;;;;;;5045352;28;20460;-46
2024/02/26 05:29:25;;;;;;;1.30;0.60;;;8.70;99.90;;;;;;5031616;28;20439;-46
2024/02/26 05:31:56;;;;;;;1.10;0.67;;;8.70;99.90;;;;;;5042433;28;20491;-45
2024/02/26 05:34:27;;;;;;;1.20;0.60;;;8.70;99.90;;;;;;5028881;28;20459;-45
2024/02/26 05:36:55;;;;;;;1.40;1.00;;;8.70;99.90;;;;;;5034554;28;20463;-45
2024/02/26 05:39:23;;;;;;;1.97;0.70;;;8.70;99.90;;;;;;5047040;28;20489;-45
2024/02/26 05:41:52;;;;;;;1.80;0.60;;;8.70;99.90;;;;;;5045087;28;20507;-45
2024/02/26 05:44:27;;;;;;;1.30;0.77;;;8.70;99.90;;;;;;5030403;28;20448;-45
2024/02/26 05:46:57;;;;;;;2.27;0.73;;;8.70;99.90;;;;;;5026374;28;20810;-45
2024/02/26 05:49:27;;;;;;;1.10;0.50;;;8.70;99.90;;;;;;5025008;28;20538;-45
2024/02/26 05:51:58;;;;;;;1.10;0.50;;;8.70;99.90;;;;;;5025664;28;20217;-45
2024/02/26 05:54:27;;;;;;;1.40;0.63;;;8.70;99.90;;;;;;5024527;28;20985;-45
2024/02/26 05:56:55;;;;;;;1.40;0.70;;;8.70;99.90;;;;;;5032483;28;20458;-45
2024/02/26 05:59:26;;;;;;;1.60;0.70;;;8.70;99.90;;;;;;5047452;28;20477;-45
2024/02/26 06:01:58;;;;;;;1.40;0.70;;;8.70;99.90;;;;;;5042661;28;20467;-45
2024/02/26 06:04:27;;;;;;;1.67;1.00;;;8.70;99.90;;;;;;5028566;28;20460;-44
2024/02/26 06:06:57;;;;;;;1.30;0.70;;;8.70;99.90;;;;;;5031566;28;20972;-45
2024/02/26 06:09:27;;;;;;;1.70;0.93;;;8.70;99.90;;;;;;5050442;28;20949;-44
2024/02/26 06:11:56;;;;;;;2.00;0.73;;;8.70;99.90;;;;;;5044482;28;20463;-45
2024/02/26 06:14:27;;;;;;;2.00;1.00;;;8.70;99.90;;;;;;5028173;28;20464;-45
2024/02/26 06:16:58;;;;;;;1.27;0.60;;;8.70;99.90;;;;;;5035032;28;20451;-45
2024/02/26 06:19:27;;;;;;;1.90;0.90;;;8.70;99.90;;;;;;5032063;28;20450;-44
2024/02/26 06:21:57;;;;;;;1.50;0.90;;;8.70;99.90;;;;;;5044599;28;20939;-45
2024/02/26 06:24:26;;;;;;;1.93;0.90;;;8.70;99.90;;;;;;5030449;28;20463;-45
2024/02/26 06:26:57;;;;;;;1.50;0.80;;;8.70;99.90;;;;;;5021557;28;20464;-45
2024/02/26 06:29:25;;;;;;;1.40;0.67;;;8.70;99.90;;;;;;5029780;28;20930;-45
2024/02/26 06:31:58;;;;;;;1.27;0.50;;;8.70;99.90;;;;;;5028116;28;20455;-45
2024/02/26 06:34:27;;;;;;;1.40;0.83;;;8.70;99.90;;;;;;5020277;28;20463;-45
2024/02/26 06:36:56;;;;;;;1.77;0.80;;;8.70;99.90;;;;;;5025993;28;20998;-44
2024/02/26 06:39:27;;;;;;;1.43;0.70;;;8.70;99.90;;;;;;5027888;28;20443;-45
2024/02/26 06:42:00;;;;;;;1.52;0.70;;;8.70;99.90;;;;;;5022083;28;20531;-45
2024/02/26 06:44:31;;;;;;;1.27;0.80;;;8.70;99.90;;;;;;5026515;28;20252;-45
2024/02/26 06:47:02;;;;;;;1.57;0.70;;;8.70;99.90;;;;;;5029685;28;20469;-44
2024/02/26 06:49:32;;;;;;;1.20;0.60;;;8.70;99.90;;;;;;5024593;28;20466;-45
2024/02/26 06:52:01;;;;;;;1.80;0.80;;;8.70;99.90;;;;;;5027146;28;20884;-45
2024/02/26 06:54:30;;;;;;;1.63;0.90;;;8.70;99.90;;;;;;5027903;28;20460;-45
2024/02/26 06:56:58;;;;;;;1.83;0.90;;;8.70;99.90;;;;;;5028100;28;20997;-44
2024/02/26 06:59:27;;;;;;;1.87;1.33;;;8.60;99.90;;;;;;5030472;28;20439;-45
2024/02/26 07:01:56;;;;;;;1.50;0.90;;;8.70;99.90;;;;;;5025440;28;20981;-45
2024/02/26 07:04:28;;;;;;;1.60;0.70;;;8.60;99.90;;;;;;5028406;28;21041;-45
2024/02/26 07:06:56;;;;;;;1.60;1.00;;;8.60;99.90;;;;;;5015026;28;20519;-44
2024/02/26 07:09:27;;;;;;;1.30;0.80;;;8.60;99.90;;;;;;5034072;28;20505;-45
2024/02/26 07:11:57;;;;;;;1.50;0.90;;;8.60;99.90;;;;;;5030623;28;20466;-46
2024/02/26 07:14:32;;;;;;;1.30;0.80;;;8.60;99.90;;;;;;5032450;28;20452;-46
2024/02/26 07:17:01;;;;;;;1.20;0.70;;;8.60;99.90;;;;;;5030639;28;20464;-45
2024/02/26 07:19:33;;;;;;;1.50;0.90;;;8.60;99.90;;;;;;5009884;28;20690;-45
2024/02/26 07:22:02;;;;;;;2.10;0.90;;;8.60;99.90;;;;;;5033175;28;20467;-44
2024/02/26 07:24:32;;;;;;;1.50;0.90;;;8.60;99.90;;;;;;5033349;28;20225;-45
2024/02/26 07:27:01;;;;;;;1.97;1.00;;;8.60;99.90;;;;;;5030372;28;20343;-45
2024/02/26 07:29:32;;;;;;;1.63;0.70;;;8.60;99.90;;;;;;5026680;28;20949;-44
2024/02/26 07:32:01;;;;;;;1.52;0.65;;;8.60;99.90;;;;;;5032460;28;20470;-45
2024/02/26 07:34:33;;;;;;;1.67;1.03;;;8.60;99.90;;;;;;5028647;28;20225;-45
2024/02/26 07:37:01;;;;;;;1.67;1.13;;;8.60;99.90;;;;;;5031643;28;20478;-44
2024/02/26 07:39:31;;;;;;;1.70;1.00;;;8.60;99.90;;;;;;5032691;28;20432;-45
2024/02/26 07:42:02;;;;;;;1.47;0.83;;;8.60;99.90;;;;;;5027891;28;20459;-46
2024/02/26 07:44:31;;;;;;;2.40;0.97;;;8.60;99.90;;;;;;5029584;28;20464;-44
2024/02/26 07:47:00;;;;;;;2.10;1.10;;;8.60;99.90;;;;;;5031612;28;20518;-44
2024/02/26 07:49:30;;;;;;;1.50;0.80;;;8.60;99.90;;;;;;5025654;28;20447;-45
2024/02/26 07:52:02;;;;;;;1.50;0.77;;;8.60;99.90;;;;;;5014873;28;20556;-45
2024/02/26 07:54:30;;;;;;;2.43;1.47;;;8.60;99.90;;;;;;5027683;28;20453;-45
2024/02/26 07:57:00;;;;;;;1.60;1.07;;;8.60;99.90;;;;;;5027643;28;21060;-45
2024/02/26 07:59:28;;;;;;;1.30;0.70;;;8.60;99.90;;;;;;5032740;28;20432;-44
2024/02/26 08:01:56;;;;;;;1.40;0.90;;;8.60;99.90;;;;;;5032003;28;20897;-44
2024/02/26 08:04:26;;;;;;;1.80;0.90;;;8.60;99.90;;;;;;5026263;28;20464;-44
2024/02/26 08:06:56;;;;;;;1.60;0.70;;;8.60;99.90;;;;;;5031223;28;20466;-44
2024/02/26 08:09:25;;;;;;;1.97;0.70;;;8.60;99.90;;;;;;5031452;28;20483;-45
2024/02/26 08:11:55;;;;;;;1.60;0.90;;;8.60;99.90;;;;;;5028569;28;20467;-45
2024/02/26 08:14:24;;;;;;;2.27;1.10;;;8.60;99.90;;;;;;5034566;28;20468;-45
2024/02/26 08:16:53;;;;;;;1.40;0.83;;;8.60;99.90;;;;;;5027468;28;20547;-44
2024/02/26 08:19:22;;;;;;;2.03;1.13;;;8.60;99.90;;;;;;5025877;28;20455;-45
2024/02/26 08:21:52;;;;;;;2.50;1.30;;;8.60;99.90;;;;;;5028204;28;20517;-44
2024/02/26 08:24:20;;;;;;;1.83;1.00;;;8.60;99.90;;;;;;5051626;28;20966;-45
2024/02/26 08:26:50;;;;;;;1.57;0.90;;;8.60;99.90;;;;;;5047688;28;20467;-45
2024/02/26 08:29:18;;;;;;;1.60;1.10;;;8.60;99.90;;;;;;5031461;28;20941;-45
2024/02/26 08:31:46;;;;;;;1.97;1.03;;;8.60;99.90;;;;;;5023043;28;20456;-45
2024/02/26 08:34:15;;;;;;;2.07;1.00;;;8.60;99.90;;;;;;5020461;28;20456;-44
2024/02/26 08:36:45;;;;;;;1.60;0.93;;;8.60;99.90;;;;;;5028940;28;20514;-44
2024/02/26 08:39:17;;;;;;;2.23;1.10;;;8.60;99.90;;;;;;5046543;28;20426;-44
2024/02/26 08:41:45;;;;;;;1.53;0.97;;;8.60;99.90;;;;;;5042240;28;20462;-45
2024/02/26 08:44:15;;;;;;;2.70;1.10;;;8.60;99.90;;;;;;5025244;28;20829;-44
2024/02/26 08:46:43;;;;;;;1.40;0.83;;;8.60;99.90;;;;;;5024030;28;20547;-44
2024/02/26 08:49:11;;;;;;;1.83;1.20;;;8.60;99.90;;;;;;5025933;28;20444;-44
2024/02/26 08:51:43;;;;;;;1.53;0.80;;;8.50;99.90;;;;;;5027238;28;20455;-44
2024/02/26 08:54:12;;;;;;;1.60;1.00;;;8.60;99.90;;;;;;5031213;28;20454;-44
2024/02/26 08:56:42;;;;;;;2.40;0.60;;;8.60;99.90;;;;;;5026799;28;20456;-45
2024/02/26 08:59:11;;;;;;;1.20;0.60;;;8.60;99.90;;;;;;5029572;28;20472;-44
2024/02/26 09:01:42;;;;;;;1.67;1.03;;;8.60;99.90;;;;;;5028190;28;20451;-44
2024/02/26 09:04:12;;;;;;;1.30;0.70;;;8.60;99.90;;;;;;5025153;28;20467;-44
2024/02/26 09:06:42;;;;;;;1.40;0.63;;;8.60;99.90;;;;;;5028674;28;20557;-44
2024/02/26 09:09:11;;;;;;;2.30;1.03;;;8.60;99.90;;;;;;5048539;28;20479;-44
2024/02/26 09:11:41;;;;;;;1.70;0.80;;;8.60;99.90;;;;;;5048216;28;20446;-44
2024/02/26 09:14:09;;;;;;;1.70;1.10;;;8.60;99.90;;;;;;5031468;28;20482;-45
2024/02/26 09:16:37;;;;;;;1.40;0.87;;;8.60;99.90;;;;;;5024143;28;20456;-45
2024/02/26 09:19:08;;;;;;;2.35;1.00;;;8.60;99.90;;;;;;5023641;28;20942;-44
2024/02/26 09:21:37;;;;;;;1.87;1.17;;;8.50;99.90;;;;;;5029630;28;20211;-44
2024/02/26 09:24:07;;;;;;;1.90;1.10;;;8.50;99.90;;;;;;5024955;28;20468;-44
2024/02/26 09:26:36;;;;;;;1.90;1.00;;;8.50;99.90;;;;;;5028074;28;20551;-44
2024/02/26 09:29:08;;;;;;;1.80;1.00;;;8.60;99.90;;;;;;5028272;28;20451;-44
2024/02/26 09:31:37;;;;;;;1.50;1.07;;;8.50;99.90;;;;;;5025320;28;20834;-44
2024/02/26 09:34:06;;;;;;;1.47;0.90;;;8.50;99.90;;;;;;5022074;28;20519;-45
2024/02/26 09:36:38;;;;;;;1.23;0.80;;;8.60;99.90;;;;;;5026006;28;20460;-44
2024/02/26 09:39:07;;;;;;;1.50;0.90;;;8.50;99.90;;;;;;5026229;28;20443;-44
2024/02/26 09:41:36;;;;;;;3.08;1.20;;;8.50;99.90;;;;;;5031037;28;20823;-44
2024/02/26 09:44:06;;;;;;;1.73;0.83;;;8.50;99.90;;;;;;5050097;28;20227;-45
2024/02/26 09:46:34;;;;;;;1.70;1.00;;;8.50;99.90;;;;;;5046277;28;20455;-44
2024/02/26 09:49:06;;;;;;;1.35;0.90;;;8.50;99.90;;;;;;5018295;28;20451;-44
2024/02/26 09:51:35;;;;;;;2.00;1.63;;;8.50;99.90;;;;;;5029463;28;20756;-44
2024/02/26 09:54:10;;;;;;;2.20;1.10;;;8.50;99.90;;;;;;5013094;28;20806;-45
2024/02/26 09:56:40;;;;;;;2.00;1.03;;;8.50;99.90;;;;;;5029707;28;20196;-45
2024/02/26 09:59:23;;;;;;;4.10;1.40;;;8.50;99.90;;;;;;5048331;28;20510;-45
2024/02/26 10:01:57;;;;;;;4.63;1.13;;;8.50;99.90;;;;;;5045804;28;20459;-44
2024/02/26 10:04:28;;;;;;;2.00;1.30;;;8.50;99.90;;;;;;5021466;28;20468;-45
2024/02/26 10:06:56;;;;;;;1.83;0.95;;;8.50;99.90;;;;;;5026672;28;20543;-44
2024/02/26 10:09:26;;;;;;;1.23;0.70;;;8.50;99.90;;;;;;5010374;28;20682;-44
2024/02/26 10:11:57;;;;;;;1.47;0.70;;;8.50;99.90;;;;;;5030083;28;20460;-44
2024/02/26 10:14:27;;;;;;;1.73;1.00;;;8.50;99.90;;;;;;5027828;28;20990;-44
2024/02/26 10:16:55;;;;;;;1.77;1.00;;;8.50;99.90;;;;;;5029886;28;20456;-44
2024/02/26 10:19:27;;;;;;;1.60;1.00;;;8.50;99.90;;;;;;5023751;28;20443;-44
2024/02/26 10:22:00;;;;;;;2.17;1.07;;;8.50;99.90;;;;;;5027018;28;20466;-44
2024/02/26 10:24:32;;;;;;;1.30;0.70;;;8.50;99.90;;;;;;5030196;28;20485;-44
2024/02/26 10:27:01;;;;;;;1.60;0.90;;;8.50;99.90;;;;;;5025099;28;20448;-45
2024/02/26 10:29:29;;;;;;;1.63;0.90;;;8.50;99.90;;;;;;5028938;28;20470;-44
2024/02/26 10:31:57;;;;;;;2.17;1.43;;;8.50;99.90;;;;;;5028869;28;20842;-45
2024/02/26 10:34:28;;;;;;;1.60;1.00;;;8.50;99.90;;;;;;5023852;28;20996;-44
2024/02/26 10:36:57;;;;;;;3.03;1.90;;;8.50;99.90;;;;;;5032755;28;20459;-44
2024/02/26 10:39:27;;;;;;;2.83;1.57;;;8.50;99.90;;;;;;5053688;28;20453;-44
2024/02/26 10:41:58;;;;;;;2.20;1.48;;;8.50;99.90;;;;;;5048501;28;20467;-44
2024/02/26 10:44:27;;;;;;;2.40;1.80;;;8.50;99.90;;;;;;5028229;28;20225;-45
2024/02/26 10:46:56;;;;;;;2.20;1.25;;;8.50;99.90;;;;;;5032558;28;20447;-44
2024/02/26 10:49:26;;;;;;;2.15;1.50;;;8.50;99.90;;;;;;5027465;28;20190;-45
2024/02/26 10:51:58;;;;;;;4.30;1.27;;;8.50;99.90;;;;;;5029986;28;20762;-44
2024/02/26 10:54:30;;;;;;;4.03;1.27;;;8.50;99.90;;;;;;5033937;28;20554;-44
2024/02/26 10:57:01;;;;;;;2.00;1.27;;;8.50;99.90;;;;;;5030132;28;20875;-45
2024/02/26 10:59:30;;;;;;;1.88;1.45;;;8.50;99.90;;;;;;5031021;28;20461;-44
2024/02/26 11:01:58;;;;;;;3.03;1.80;;;8.50;99.90;;;;;;5029819;28;20302;-44
2024/02/26 11:04:29;;;;;;;2.20;1.52;;;8.50;99.90;;;;;;5027273;28;20487;-44
2024/02/26 11:06:58;;;;;;;3.50;1.60;;;8.50;99.90;;;;;;5030289;28;20243;-44
2024/02/26 11:09:28;;;;;;;2.25;1.08;;;8.50;99.90;;;;;;5034032;28;20467;-45
2024/02/26 11:12:00;;;;;;;1.90;1.30;;;8.50;99.90;;;;;;5033471;28;20246;-44
2024/02/26 11:14:30;;;;;;;1.70;1.10;;;8.50;99.90;;;;;;5053499;28;20794;-44
2024/02/26 11:17:01;;;;;;;3.93;1.37;;;8.50;99.90;;;;;;5046070;28;20463;-44
2024/02/26 11:19:33;;;;;;;2.63;1.55;;;8.50;99.90;;;;;;5026666;28;20471;-44
2024/02/26 11:22:05;;;;;;;3.07;1.60;;;8.50;99.90;;;;;;5036223;28;20238;-44
2024/02/26 11:24:50;;;;;;;2.13;1.45;;;8.50;99.90;;;;;;5049361;28;20471;-45
2024/02/26 11:27:23;;;;;;;2.07;0.90;;;8.50;99.90;;;;;;5044929;28;20220;-44
2024/02/26 11:29:55;;;;;;;1.60;1.03;;;8.50;99.90;;;;;;5027088;28;20460;-44
2024/02/26 11:32:29;;;;;;;2.50;0.97;;;8.50;99.90;;;;;;5029174;28;20559;-44
2024/02/26 11:34:59;;;;;;;3.10;1.47;;;8.50;99.90;;;;;;5021661;28;21654;-45
2024/02/26 11:37:27;;;;;;;2.30;1.63;;;8.50;99.90;;;;;;5028388;28;20480;-44
2024/02/26 11:40:00;;;;;;;1.37;1.07;;;8.50;99.90;;;;;;5030872;28;20758;-44
2024/02/26 11:42:31;;;;;;;1.70;1.03;;;8.50;99.90;;;;;;5025541;28;20463;-44
2024/02/26 11:45:01;;;;;;;2.05;1.40;;;8.50;99.90;;;;;;5031834;28;20500;-44
2024/02/26 11:47:29;;;;;;;1.60;1.35;;;8.50;99.90;;;;;;5040805;28;20315;-45
2024/02/26 11:49:57;;;;;;;1.60;1.10;;;8.50;99.90;;;;;;5041778;28;20199;-45
2024/02/26 11:52:27;;;;;;;2.88;1.70;;;8.50;99.90;;;;;;5052414;28;20466;-44
2024/02/26 11:54:57;;;;;;;2.17;1.00;;;8.50;99.90;;;;;;5052917;28;20274;-45
2024/02/26 11:57:32;;;;;;;2.20;1.00;;;8.50;99.90;;;;;;5040542;28;20471;-44
2024/02/26 12:00:13;;;;;;;1.60;1.30;;;8.50;99.90;;;;;;5030134;28;20535;-45
2024/02/26 12:02:46;;;;;;;1.85;1.20;;;8.50;99.90;;;;;;5027112;28;20472;-44
2024/02/26 12:05:19;;;;;;;2.80;1.40;;;8.50;99.90;;;;;;5025473;28;20229;-44
2024/02/26 12:07:49;;;;;;;2.53;1.10;;;8.50;99.90;;;;;;5030244;28;20227;-44
2024/02/26 12:10:26;;;;;;;1.80;1.23;;;8.50;99.90;;;;;;5030539;28;20486;-45
2024/02/26 12:12:59;;;;;;;3.90;1.20;;;8.50;99.90;;;;;;5024694;28;20536;-44
2024/02/26 12:15:33;;;;;;;1.95;1.20;;;8.40;99.90;;;;;;5023053;28;20474;-44
2024/02/26 12:18:03;;;;;;;2.07;1.13;;;8.50;99.90;;;;;;5041847;28;20269;-44
2024/02/26 12:20:32;;;;;;;3.00;1.35;;;8.40;99.90;;;;;;5049792;28;21010;-44
2024/02/26 12:23:01;;;;;;;2.00;1.23;;;8.40;99.90;;;;;;5038387;28;20240;-44
2024/02/26 12:25:31;;;;;;;1.75;0.80;;;8.40;99.90;;;;;;5031570;28;20228;-44
2024/02/26 12:28:03;;;;;;;2.47;1.50;;;8.40;99.90;;;;;;5027927;28;20217;-45
2024/02/26 12:30:32;;;;;;;3.42;1.40;;;8.40;99.90;;;;;;5024340;28;20457;-44
2024/02/26 12:33:02;;;;;;;2.30;1.10;;;8.40;99.90;;;;;;5025196;28;20223;-44
2024/02/26 12:35:31;;;;;;;2.10;1.30;;;8.40;99.90;;;;;;5020597;28;20483;-45
2024/02/26 12:38:01;;;;;;;1.87;1.03;;;8.40;99.90;;;;;;5027619;28;20506;-44
2024/02/26 12:40:31;;;;;;;2.75;1.50;;;8.40;99.90;;;;;;5027706;28;20448;-45
2024/02/26 12:43:02;;;;;;;1.63;1.17;;;8.40;99.90;;;;;;5027733;28;20308;-46
2024/02/26 12:45:31;;;;;;;1.60;1.10;;;8.40;99.90;;;;;;5022303;28;20494;-44
2024/02/26 12:48:00;;;;;;;1.90;1.27;;;8.40;99.90;;;;;;5027788;28;20633;-45
2024/02/26 12:50:31;;;;;;;2.22;1.40;;;8.40;99.90;;;;;;5016816;28;20581;-44
2024/02/26 12:53:01;;;;;;;2.93;1.27;;;8.40;99.90;;;;;;5042976;28;20212;-44
2024/02/26 12:55:31;;;;;;;2.15;1.15;;;8.40;99.90;;;;;;5029067;28;20467;-44
2024/02/26 12:58:02;;;;;;;2.23;1.27;;;8.40;99.90;;;;;;5031244;28;20209;-44
2024/02/26 13:00:31;;;;;;;2.90;1.58;;;8.40;99.90;;;;;;5025373;28;20444;-44
2024/02/26 13:03:01;;;;;;;2.37;1.53;;;8.40;99.90;;;;;;5040460;28;20292;-45
2024/02/26 13:05:30;;;;;;;1.80;1.17;;;8.40;99.90;;;;;;5029953;28;21104;-45
2024/02/26 13:07:58;;;;;;;1.67;1.03;;;8.40;99.90;;;;;;5036088;28;20470;-45
2024/02/26 13:10:26;;;;;;;4.22;1.40;;;8.40;99.90;;;;;;5051286;28;20491;-44
2024/02/26 13:12:55;;;;;;;2.10;1.50;;;8.40;99.90;;;;;;5032837;28;20567;-45